Tawas City, Michigan
Current Conditions -  °F | °C
As of 6:54 PM on Saturday 22 Nov 2014 (Local Time) from KOSC Reporting Station
Haze Haze  
Wind Chill: 30°   Ceiling: 300
Heat Index: 38°   Visibility: 1.5mi
Dew Point: 37°   Wind: 13mph
Humidity: 99%   Direction: 210°SSW
Pressure: 29.83"   Gusts: NA
Location:  44.27°N, 83.52°W
Report Text: KOSC 222354Z AUTO 21011KT 1 1/2SM BR OVC003 03/02 A2983 RMK AO2 T00310030
Loading
Personal Weather Stations






























Interactive Weather Map New forecast layout! Learn more

10-Day Weather Forecast

Advertisements
Track Severe Weather on mobile